createdAt,value
2023-04-11T00:00:56.426Z,0.56
2023-04-11T00:01:56.579Z,0.56
2023-04-11T00:02:56.717Z,0.56
2023-04-11T00:03:56.614Z,0.57
2023-04-11T00:04:56.564Z,0.57
2023-04-11T00:05:56.566Z,0.56
2023-04-11T00:06:56.600Z,0.57
2023-04-11T00:07:56.631Z,0.57
2023-04-11T00:08:57.046Z,0.57
2023-04-11T00:09:56.663Z,0.57
2023-04-11T00:10:56.695Z,0.56
2023-04-11T00:11:56.715Z,0.56
2023-04-11T00:12:56.977Z,0.57
2023-04-11T00:13:56.769Z,0.56
2023-04-11T00:14:56.785Z,0.56
2023-04-11T00:15:56.881Z,0.55
2023-04-11T00:16:56.910Z,0.56
2023-04-11T00:17:56.900Z,0.55
2023-04-11T00:18:57.096Z,0.55
2023-04-11T00:19:56.931Z,0.55
2023-04-11T00:20:56.966Z,0.55
2023-04-11T00:21:56.988Z,0.55
2023-04-11T00:22:57.014Z,0.54
2023-04-11T00:23:57.088Z,0.55
2023-04-11T00:24:57.076Z,0.55
2023-04-11T00:25:57.103Z,0.54
2023-04-11T00:26:57.149Z,0.54
2023-04-11T00:27:57.166Z,0.56
2023-04-11T00:28:57.265Z,0.55
2023-04-11T00:29:57.222Z,0.54
2023-04-11T00:30:57.243Z,0.56
2023-04-11T00:31:57.303Z,0.56
2023-04-11T00:32:57.330Z,0.55
2023-04-11T00:33:57.320Z,0.56
2023-04-11T00:34:57.356Z,0.55
2023-04-11T00:35:57.443Z,0.55
2023-04-11T00:36:57.482Z,0.56
2023-04-11T00:37:57.434Z,0.55
2023-04-11T00:38:57.659Z,0.56
2023-04-11T00:39:57.486Z,0.57
2023-04-11T00:40:57.534Z,0.54
2023-04-11T00:41:57.576Z,0.55
2023-04-11T00:42:57.624Z,0.55
2023-04-11T00:43:57.744Z,0.56
2023-04-11T00:44:57.657Z,0.55
2023-04-11T00:45:57.687Z,0.56
2023-04-11T00:46:57.676Z,0.56
2023-04-11T00:47:57.734Z,0.56
2023-04-11T00:48:58.047Z,0.56
2023-04-11T00:49:57.754Z,0.56
2023-04-11T00:50:57.774Z,0.56
2023-04-11T00:51:57.796Z,0.55
2023-04-11T00:52:57.814Z,0.57
2023-04-11T00:53:57.853Z,0.56
2023-04-11T00:54:57.874Z,0.56
2023-04-11T00:55:57.902Z,0.57
2023-04-11T00:56:57.930Z,0.58
2023-04-11T00:57:57.951Z,0.57
2023-04-11T00:58:57.978Z,0.58
2023-04-11T00:59:58.001Z,0.57
2023-04-11T01:00:58.036Z,0.56
2023-04-11T01:01:58.191Z,0.56
2023-04-11T01:02:58.186Z,0.58
2023-04-11T01:03:58.166Z,0.56
2023-04-11T01:04:58.133Z,0.58
2023-04-11T01:05:58.151Z,0.58
2023-04-11T01:06:58.177Z,0.58
2023-04-11T01:07:58.217Z,0.58
2023-04-11T01:08:58.406Z,0.58
2023-04-11T01:09:58.272Z,0.58
2023-04-11T01:10:58.298Z,0.58
2023-04-11T01:11:58.333Z,0.57
2023-04-11T01:12:58.360Z,0.59
2023-04-11T01:13:58.389Z,0.58
2023-04-11T01:14:58.441Z,0.59
2023-04-11T01:15:58.446Z,0.59
2023-04-11T01:16:58.552Z,0.59
2023-04-11T01:17:58.579Z,0.57
2023-04-11T01:18:58.531Z,0.57
2023-04-11T01:19:58.556Z,0.59
2023-04-11T01:20:58.604Z,0.58
2023-04-11T01:21:58.621Z,0.58
2023-04-11T01:22:58.639Z,0.59
2023-04-11T01:23:58.674Z,0.59
2023-04-11T01:24:58.706Z,0.59
2023-04-11T01:25:58.736Z,0.58
2023-04-11T01:26:58.774Z,0.58
2023-04-11T01:27:58.806Z,0.59
2023-04-11T01:28:58.833Z,0.58
2023-04-11T01:29:58.852Z,0.59
2023-04-11T01:30:58.891Z,0.58
2023-04-11T01:31:58.910Z,0.57
2023-04-11T01:32:58.972Z,0.59
2023-04-11T01:33:58.865Z,0.57
2023-04-11T01:34:58.839Z,0.58
2023-04-11T01:35:58.856Z,0.59
2023-04-11T01:36:58.809Z,0.59
2023-04-11T01:37:58.802Z,0.59
2023-04-11T01:38:58.771Z,0.59
2023-04-11T01:39:58.764Z,0.58
2023-04-11T01:40:58.774Z,0.59
2023-04-11T01:41:58.763Z,0.58
2023-04-11T01:42:58.745Z,0.59
2023-04-11T01:43:58.723Z,0.59
2023-04-11T01:44:58.704Z,0.58
2023-04-11T01:45:58.668Z,0.58
2023-04-11T01:46:58.680Z,0.59
2023-04-11T01:47:58.746Z,0.59
2023-04-11T01:48:58.862Z,0.60
2023-04-11T01:49:58.646Z,0.59
2023-04-11T01:50:58.611Z,0.59
2023-04-11T01:51:58.593Z,0.58
2023-04-11T01:52:58.585Z,0.60
2023-04-11T01:53:58.554Z,0.60
2023-04-11T01:54:58.537Z,0.58
2023-04-11T01:55:58.498Z,0.60
2023-04-11T01:56:58.485Z,0.58
2023-04-11T01:57:58.465Z,0.59
2023-04-11T01:58:58.431Z,0.58
2023-04-11T01:59:58.414Z,0.58
2023-04-11T02:00:58.412Z,0.59
2023-04-11T02:01:58.482Z,0.58
2023-04-11T02:02:58.495Z,0.58
2023-04-11T02:03:58.469Z,0.60
2023-04-11T02:04:58.324Z,0.60
2023-04-11T02:05:58.300Z,0.59
2023-04-11T02:06:58.279Z,0.59
2023-04-11T02:07:58.257Z,0.59
2023-04-11T02:08:58.247Z,0.60
2023-04-11T02:09:58.237Z,0.59
2023-04-11T02:10:58.191Z,0.58
2023-04-11T02:11:58.164Z,0.60
2023-04-11T02:12:58.154Z,0.59
2023-04-11T02:13:58.118Z,0.59
2023-04-11T02:14:58.090Z,0.60
2023-04-11T02:15:58.100Z,0.60
2023-04-11T02:16:58.037Z,0.58
2023-04-11T02:17:58.055Z,0.58
2023-04-11T02:18:58.241Z,0.59
2023-04-11T02:19:58.059Z,0.57
2023-04-11T02:20:57.956Z,0.58
2023-04-11T02:21:57.925Z,0.58
2023-04-11T02:22:57.903Z,0.60
2023-04-11T02:23:58.775Z,0.59
2023-04-11T02:24:57.864Z,0.58
2023-04-11T02:25:57.848Z,0.59
2023-04-11T02:26:57.815Z,0.59
2023-04-11T02:27:57.850Z,0.57
2023-04-11T02:28:57.892Z,0.58
2023-04-11T02:29:57.761Z,0.59
2023-04-11T02:30:57.807Z,0.58
2023-04-11T02:31:57.748Z,0.58
2023-04-11T02:32:57.703Z,0.59
2023-04-11T02:33:57.656Z,0.57
2023-04-11T02:34:57.633Z,0.58
2023-04-11T02:35:57.614Z,0.59
2023-04-11T02:36:57.589Z,0.59
2023-04-11T02:37:57.560Z,0.57
2023-04-11T02:38:57.644Z,0.59
2023-04-11T02:39:57.545Z,0.58
2023-04-11T02:40:57.485Z,0.58
2023-04-11T02:41:57.532Z,0.58
2023-04-11T02:42:57.444Z,0.58
2023-04-11T02:43:57.414Z,0.58
2023-04-11T02:44:57.398Z,0.58
2023-04-11T02:46:09.503Z,0.58
2023-04-11T02:46:58.349Z,0.58
2023-04-11T02:47:57.309Z,0.58
2023-04-11T02:48:57.515Z,0.59
2023-04-11T02:49:57.215Z,0.58
2023-04-11T02:50:57.181Z,0.57
2023-04-11T02:51:57.161Z,0.57
2023-04-11T02:52:57.138Z,0.58
2023-04-11T02:53:57.106Z,0.56
2023-04-11T02:54:57.072Z,0.57
2023-04-11T02:55:57.082Z,0.58
2023-04-11T02:56:57.009Z,0.58
2023-04-11T02:57:56.968Z,0.58
2023-04-11T02:58:57.186Z,0.57
2023-04-11T02:59:56.899Z,0.57
2023-04-11T03:00:56.863Z,0.57
2023-04-11T03:01:56.880Z,0.57
2023-04-11T03:02:56.881Z,0.57
2023-04-11T03:03:56.817Z,0.57
2023-04-11T03:04:56.722Z,0.58
2023-04-11T03:05:56.684Z,0.58
2023-04-11T03:06:56.649Z,0.56
2023-04-11T03:07:56.621Z,0.56
2023-04-11T03:08:56.985Z,0.58
2023-04-11T03:09:56.534Z,0.57
2023-04-11T03:10:56.492Z,0.57
2023-04-11T03:11:56.448Z,0.57
2023-04-11T03:12:56.395Z,0.58
2023-04-11T03:13:56.379Z,0.58
2023-04-11T03:14:56.339Z,0.57
2023-04-11T03:15:56.326Z,0.58
2023-04-11T03:16:56.276Z,0.56
2023-04-11T03:17:56.274Z,0.57
2023-04-11T03:18:56.476Z,0.57
2023-04-11T03:19:56.165Z,0.57
2023-04-11T03:20:56.221Z,0.57
2023-04-11T03:21:56.102Z,0.57
2023-04-11T03:22:56.073Z,0.56
2023-04-11T03:23:56.044Z,0.56
2023-04-11T03:24:56.004Z,0.57
2023-04-11T03:25:55.976Z,0.56
2023-04-11T03:26:55.945Z,0.57
2023-04-11T03:27:55.916Z,0.58
2023-04-11T03:28:55.990Z,0.57
2023-04-11T03:29:55.858Z,0.58
2023-04-11T03:30:55.850Z,0.56
2023-04-11T03:31:55.808Z,0.58
2023-04-11T03:32:55.833Z,0.57
2023-04-11T03:33:55.751Z,0.56
2023-04-11T03:34:55.729Z,0.56
2023-04-11T03:35:55.744Z,0.56
2023-04-11T03:36:55.650Z,0.57
2023-04-11T03:37:55.624Z,0.57
2023-04-11T03:38:55.840Z,0.56
2023-04-11T03:39:55.562Z,0.57
2023-04-11T03:40:55.533Z,0.57
2023-04-11T03:41:55.499Z,0.55
2023-04-11T03:42:55.478Z,0.56
2023-04-11T03:43:55.447Z,0.58
2023-04-11T03:44:55.404Z,0.57
2023-04-11T03:45:55.371Z,0.58
2023-04-11T03:46:55.477Z,0.57
2023-04-11T03:47:55.348Z,0.56
2023-04-11T03:48:55.509Z,0.57
2023-04-11T03:49:55.240Z,0.58
2023-04-11T03:50:55.202Z,0.56
2023-04-11T03:51:55.179Z,0.56
2023-04-11T03:52:55.139Z,0.57
2023-04-11T03:53:55.121Z,0.57
2023-04-11T03:54:55.080Z,0.55
2023-04-11T03:55:55.053Z,0.58
2023-04-11T03:56:55.036Z,0.57
2023-04-11T03:57:54.993Z,0.56
2023-04-11T03:58:55.181Z,0.57
2023-04-11T03:59:54.964Z,0.57
2023-04-11T04:00:54.943Z,0.56
2023-04-11T04:01:55.025Z,0.57
2023-04-11T04:02:55.065Z,0.58
2023-04-11T04:03:55.299Z,0.58
2023-04-11T04:04:55.016Z,0.58
2023-04-11T04:05:54.849Z,0.57
2023-04-11T04:06:54.830Z,0.56
2023-04-11T04:07:55.910Z,0.59
2023-04-11T04:08:54.792Z,0.58
2023-04-11T04:09:54.766Z,0.56
2023-04-11T04:10:54.756Z,0.56
2023-04-11T04:11:54.727Z,0.57
2023-04-11T04:12:54.712Z,0.57
2023-04-11T04:13:54.932Z,0.57
2023-04-11T04:14:54.668Z,0.57
2023-04-11T04:15:54.675Z,0.57
2023-04-11T04:16:54.727Z,0.58
2023-04-11T04:17:54.763Z,0.56
2023-04-11T04:18:54.600Z,0.57
2023-04-11T04:19:54.567Z,0.57
2023-04-11T04:20:54.563Z,0.58
2023-04-11T04:21:54.529Z,0.57
2023-04-11T04:22:54.492Z,0.56
2023-04-11T04:23:54.697Z,0.57
2023-04-11T04:24:54.448Z,0.57
2023-04-11T04:25:54.424Z,0.56
2023-04-11T04:26:54.401Z,0.57
2023-04-11T04:27:54.370Z,0.57
2023-04-11T04:28:54.361Z,0.56
2023-04-11T04:29:56.361Z,0.57
2023-04-11T04:30:55.310Z,0.57
2023-04-11T04:31:54.306Z,0.57
2023-04-11T04:32:54.281Z,0.57
2023-04-11T04:33:54.352Z,0.58
2023-04-11T04:34:54.199Z,0.58
2023-04-11T04:35:54.191Z,0.56
2023-04-11T04:36:54.124Z,0.57
2023-04-11T04:37:54.209Z,0.55
2023-04-11T04:38:54.073Z,0.55
2023-04-11T04:39:54.048Z,0.56
2023-04-11T04:40:54.001Z,0.56
2023-04-11T04:41:53.977Z,0.57
2023-04-11T04:42:53.930Z,0.56
2023-04-11T04:43:54.064Z,0.56
2023-04-11T04:44:53.861Z,0.56
2023-04-11T04:45:53.907Z,0.57
2023-04-11T04:46:53.792Z,0.57
2023-04-11T04:47:53.801Z,0.56
2023-04-11T04:48:53.723Z,0.56
2023-04-11T04:49:53.690Z,0.57
2023-04-11T04:50:53.686Z,0.56
2023-04-11T04:51:53.633Z,0.55
2023-04-11T04:52:53.594Z,0.57
2023-04-11T04:53:53.737Z,0.57
2023-04-11T04:54:53.521Z,0.56
2023-04-11T04:55:53.491Z,0.55
2023-04-11T04:56:53.468Z,0.55
2023-04-11T04:57:53.450Z,0.55
2023-04-11T04:58:53.410Z,0.55
2023-04-11T04:59:53.382Z,0.56
2023-04-11T05:00:53.368Z,0.56
2023-04-11T05:01:53.577Z,0.57
2023-04-11T05:02:53.353Z,0.57
2023-04-11T05:03:53.356Z,0.55
2023-04-11T05:04:53.220Z,0.54
2023-04-11T05:05:53.202Z,0.56
2023-04-11T05:06:53.175Z,0.56
2023-04-11T05:07:53.126Z,0.56
2023-04-11T05:08:53.087Z,0.55
2023-04-11T05:09:53.052Z,0.55
2023-04-11T05:10:53.016Z,0.56
2023-04-11T05:11:52.984Z,0.54
2023-04-11T05:12:52.959Z,0.56
2023-04-11T05:13:52.922Z,0.57
2023-04-11T05:14:52.885Z,0.55
2023-04-11T05:15:52.867Z,0.56
2023-04-11T05:16:52.870Z,0.56
2023-04-11T05:17:52.847Z,0.57
2023-04-11T05:18:52.747Z,0.57
2023-04-11T05:19:52.719Z,0.55
2023-04-11T05:20:52.700Z,0.56
2023-04-11T05:21:52.657Z,0.56
2023-04-11T05:22:52.635Z,0.56
2023-04-11T05:23:52.601Z,0.56
2023-04-11T05:24:52.582Z,0.55
2023-04-11T05:25:52.531Z,0.54
2023-04-11T05:26:52.499Z,0.55
2023-04-11T05:27:52.471Z,0.56
2023-04-11T05:28:52.527Z,0.57
2023-04-11T05:29:52.398Z,0.59
2023-04-11T05:30:52.407Z,0.60
2023-04-11T05:31:52.347Z,0.64
2023-04-11T05:32:52.381Z,0.68
2023-04-11T05:33:52.278Z,0.72
2023-04-11T05:34:52.249Z,0.75
2023-04-11T05:35:52.274Z,0.79
2023-04-11T05:36:52.192Z,0.82
2023-04-11T05:37:52.152Z,0.88
2023-04-11T05:38:52.202Z,0.93
2023-04-11T05:39:52.084Z,1.01
2023-04-11T05:40:52.052Z,1.05
2023-04-11T05:41:52.003Z,1.12
2023-04-11T05:42:51.961Z,1.20
2023-04-11T05:43:51.920Z,1.29
2023-04-11T05:44:54.800Z,1.38
2023-04-11T05:45:51.846Z,1.53
2023-04-11T05:46:51.776Z,1.58
2023-04-11T05:47:51.804Z,1.66
2023-04-11T05:48:51.706Z,1.81
2023-04-11T05:49:51.665Z,1.97
2023-04-11T05:50:51.636Z,2.08
2023-04-11T05:51:51.593Z,2.17
2023-04-11T05:52:51.533Z,2.29
2023-04-11T05:53:51.488Z,2.46
2023-04-11T05:54:51.446Z,2.63
2023-04-11T05:55:51.388Z,2.86
2023-04-11T05:56:51.345Z,2.98
2023-04-11T05:57:51.297Z,1.46
2023-04-11T05:58:51.257Z,1.27
2023-04-11T05:59:51.221Z,1.02
2023-04-11T06:00:51.192Z,0.75
2023-04-11T06:01:51.182Z,0.56
2023-04-11T06:02:51.221Z,0.50
2023-04-11T06:03:51.910Z,0.51
2023-04-11T06:04:51.094Z,0.60
2023-04-11T06:05:51.012Z,0.79
2023-04-11T06:06:50.967Z,1.01
2023-04-11T06:07:50.935Z,1.09
2023-04-11T06:08:50.901Z,1.18
2023-04-11T06:09:50.867Z,1.25
2023-04-11T06:10:50.823Z,1.37
2023-04-11T06:11:50.778Z,1.51
2023-04-11T06:12:50.738Z,1.58
2023-04-11T06:13:50.695Z,1.65
2023-04-11T06:14:50.644Z,1.73
2023-04-11T06:15:50.629Z,1.83
2023-04-11T06:16:50.580Z,1.90
2023-04-11T06:17:50.615Z,1.98
2023-04-11T06:18:50.501Z,2.15
2023-04-11T06:19:50.465Z,2.22
2023-04-11T06:20:50.427Z,2.34
2023-04-11T06:21:50.389Z,2.29
2023-04-11T06:22:50.353Z,2.22
2023-04-11T06:23:50.705Z,2.43
2023-04-11T06:24:50.266Z,2.54
2023-04-11T06:25:50.239Z,2.71
2023-04-11T06:26:50.197Z,2.80
2023-04-11T06:27:50.170Z,2.80
2023-04-11T06:28:50.792Z,2.65
2023-04-11T06:29:50.106Z,1.47
2023-04-11T06:30:50.117Z,1.00
2023-04-11T06:31:50.203Z,0.84
2023-04-11T06:32:50.187Z,0.75
2023-04-11T06:33:50.018Z,0.69
2023-04-11T06:34:49.981Z,0.67
2023-04-11T06:35:50.845Z,0.68
2023-04-11T06:36:49.957Z,0.68
2023-04-11T06:37:49.923Z,0.77
2023-04-11T06:38:49.891Z,0.89
2023-04-11T06:39:49.868Z,0.97
2023-04-11T06:40:49.857Z,1.18
2023-04-11T06:41:49.868Z,1.42
2023-04-11T06:42:49.879Z,1.54
2023-04-11T06:43:49.864Z,1.65
2023-04-11T06:44:50.344Z,1.70
2023-04-11T06:45:49.884Z,1.73
2023-04-11T06:46:49.876Z,1.78
2023-04-11T06:47:49.827Z,1.87
2023-04-11T06:48:49.775Z,1.90
2023-04-11T06:49:49.750Z,1.97
2023-04-11T06:50:49.722Z,1.99
2023-04-11T06:51:49.698Z,1.85
2023-04-11T06:52:49.684Z,1.28
2023-04-11T06:53:49.689Z,0.97
2023-04-11T06:54:49.736Z,0.81
2023-04-11T06:55:49.744Z,0.71
2023-04-11T06:56:49.725Z,0.62
2023-04-11T06:57:49.796Z,0.52
2023-04-11T06:58:49.745Z,0.50
2023-04-11T06:59:49.767Z,0.50
2023-04-11T07:00:49.790Z,0.52
2023-04-11T07:01:49.981Z,0.54
2023-04-11T07:02:50.175Z,0.56
2023-04-11T07:03:50.999Z,0.56
2023-04-11T07:04:49.913Z,0.57
2023-04-11T07:05:50.307Z,0.59
2023-04-11T07:06:49.783Z,0.63
2023-04-11T07:07:49.774Z,0.71
2023-04-11T07:08:49.737Z,0.73
2023-04-11T07:09:49.723Z,0.74
2023-04-11T07:10:49.735Z,0.77
2023-04-11T07:11:49.629Z,0.80
2023-04-11T07:12:49.602Z,0.84
2023-04-11T07:13:49.566Z,0.86
2023-04-11T07:14:49.538Z,0.92
2023-04-11T07:15:49.572Z,0.96
2023-04-11T07:16:49.495Z,1.03
2023-04-11T07:17:51.434Z,1.07
2023-04-11T07:18:49.447Z,1.15
2023-04-11T07:19:49.397Z,1.21
2023-04-11T07:20:49.360Z,1.25
2023-04-11T07:21:49.338Z,1.37
2023-04-11T07:22:49.292Z,1.44
2023-04-11T07:23:49.250Z,1.49
2023-04-11T07:24:49.222Z,1.55
2023-04-11T07:25:49.191Z,1.63
2023-04-11T07:26:49.158Z,1.63
2023-04-11T07:27:49.130Z,1.70
2023-04-11T07:28:49.085Z,1.74
2023-04-11T07:29:49.065Z,1.77
2023-04-11T07:30:49.089Z,1.83
2023-04-11T07:31:49.022Z,1.80
2023-04-11T07:32:49.029Z,1.86
2023-04-11T07:33:48.919Z,1.84
2023-04-11T07:34:48.893Z,1.86
2023-04-11T07:35:48.908Z,1.86
2023-04-11T07:36:48.812Z,1.89
2023-04-11T07:37:48.783Z,1.90
2023-04-11T07:38:48.747Z,1.93
2023-04-11T07:39:48.708Z,1.94
2023-04-11T07:40:48.681Z,1.92
2023-04-11T07:41:48.647Z,1.94
2023-04-11T07:42:48.602Z,1.88
2023-04-11T07:43:48.578Z,1.93
2023-04-11T07:44:48.536Z,1.93
2023-04-11T07:45:48.547Z,1.91
2023-04-11T07:46:48.472Z,1.90
2023-04-11T07:47:48.465Z,1.89
2023-04-11T07:48:48.399Z,1.90
2023-04-11T07:49:48.378Z,1.88
2023-04-11T07:50:48.320Z,1.90
2023-04-11T07:51:48.276Z,1.93
2023-04-11T07:52:48.241Z,1.92
2023-04-11T07:53:48.207Z,1.92
2023-04-11T07:54:48.166Z,1.90
2023-04-11T07:55:48.131Z,1.94
2023-04-11T07:56:48.092Z,1.89
2023-04-11T07:57:48.071Z,1.91
2023-04-11T07:58:48.029Z,1.91
2023-04-11T07:59:48.020Z,1.91
2023-04-11T08:00:47.965Z,1.88
2023-04-11T08:01:48.785Z,1.89
2023-04-11T08:02:47.979Z,1.88
2023-04-11T08:03:48.011Z,1.85
2023-04-11T08:04:47.905Z,1.88
2023-04-11T08:05:47.788Z,1.87
2023-04-11T08:06:47.754Z,1.83
2023-04-11T08:07:47.712Z,1.82
2023-04-11T08:08:47.670Z,1.80
2023-04-11T08:09:47.625Z,1.82
2023-04-11T08:10:47.951Z,1.83
2023-04-11T08:11:47.562Z,1.77
2023-04-11T08:12:47.532Z,1.76
2023-04-11T08:13:47.498Z,1.87
2023-04-11T08:14:47.473Z,1.50
2023-04-11T08:15:47.453Z,1.30
2023-04-11T08:16:47.432Z,1.00
2023-04-11T08:17:47.410Z,0.92
2023-04-11T08:18:47.319Z,0.89
2023-04-11T08:19:47.282Z,0.95
2023-04-11T08:20:47.826Z,0.87
2023-04-11T08:21:47.261Z,0.95
2023-04-11T08:22:47.213Z,0.99
2023-04-11T08:23:47.403Z,0.76
2023-04-11T08:24:47.103Z,0.63
2023-04-11T08:25:47.067Z,0.70
2023-04-11T08:26:47.031Z,0.60
2023-04-11T08:27:47.023Z,0.48
2023-04-11T08:28:46.951Z,0.61
2023-04-11T08:29:46.908Z,0.74
2023-04-11T08:30:46.899Z,0.86
2023-04-11T08:31:46.852Z,0.96
2023-04-11T08:32:46.849Z,1.04
2023-04-11T08:33:46.795Z,1.10
2023-04-11T08:34:46.749Z,1.18
2023-04-11T08:35:46.727Z,1.27
2023-04-11T08:36:46.686Z,1.34
2023-04-11T08:37:46.682Z,1.42
2023-04-11T08:38:46.610Z,1.52
2023-04-11T08:39:46.562Z,1.65
2023-04-11T08:40:46.551Z,1.73
2023-04-11T08:41:46.503Z,1.82
2023-04-11T08:42:47.361Z,1.90
2023-04-11T08:43:46.407Z,1.96
2023-04-11T08:44:46.356Z,2.10
2023-04-11T08:45:46.384Z,2.25
2023-04-11T08:46:46.289Z,2.39
2023-04-11T08:47:46.295Z,2.48
2023-04-11T08:48:46.225Z,2.55
2023-04-11T08:49:46.141Z,2.78
2023-04-11T08:50:46.146Z,2.81
2023-04-11T08:51:46.126Z,2.94
2023-04-11T08:52:46.142Z,3.06
2023-04-11T08:53:46.169Z,3.17
2023-04-11T08:54:46.177Z,3.38
2023-04-11T08:55:46.217Z,3.61
2023-04-11T08:56:46.238Z,3.73
2023-04-11T08:57:46.233Z,3.90
2023-04-11T08:58:46.259Z,4.03
2023-04-11T08:59:46.584Z,4.08
2023-04-11T09:00:46.295Z,4.31
2023-04-11T09:01:46.425Z,4.49
2023-04-11T09:02:46.432Z,4.75
2023-04-11T09:03:46.537Z,4.86
2023-04-11T09:04:46.404Z,5.07
2023-04-11T09:05:46.372Z,5.30
2023-04-11T09:06:46.397Z,5.35
2023-04-11T09:07:46.400Z,5.31
2023-04-11T09:08:46.422Z,5.44
2023-04-11T09:09:47.264Z,5.69
2023-04-11T09:10:46.485Z,5.78
2023-04-11T09:11:46.462Z,5.86
2023-04-11T09:12:46.471Z,6.04
2023-04-11T09:13:46.484Z,6.23
2023-04-11T09:14:46.541Z,6.47
2023-04-11T09:15:46.509Z,6.52
2023-04-11T09:16:46.526Z,6.94
2023-04-11T09:17:46.568Z,6.67
2023-04-11T09:18:46.811Z,6.58
2023-04-11T09:19:48.915Z,7.03
2023-04-11T09:20:47.494Z,7.05
2023-04-11T09:21:46.453Z,7.10
2023-04-11T09:22:46.408Z,7.18
2023-04-11T09:23:46.363Z,7.39
2023-04-11T09:24:46.321Z,7.64
2023-04-11T09:25:46.852Z,7.59
2023-04-11T09:26:46.767Z,7.64
2023-04-11T09:27:46.192Z,7.55
2023-04-11T09:28:46.169Z,7.51
2023-04-11T09:29:46.132Z,7.55
2023-04-11T09:30:46.229Z,7.64
2023-04-11T09:31:47.205Z,7.66
2023-04-11T09:32:46.138Z,7.68
2023-04-11T09:33:46.043Z,7.75
2023-04-11T09:34:45.992Z,7.82
2023-04-11T09:35:45.968Z,7.89
2023-04-11T09:36:45.930Z,7.99
2023-04-11T09:37:45.858Z,7.86
2023-04-11T09:38:45.830Z,7.91
2023-04-11T09:39:45.808Z,7.99
2023-04-11T09:40:45.831Z,8.11
2023-04-11T09:41:45.853Z,7.96
2023-04-11T09:42:45.877Z,8.08
2023-04-11T09:43:45.916Z,8.01
2023-04-11T09:44:45.938Z,8.06
2023-04-11T09:45:54.085Z,7.95
2023-04-11T09:46:46.953Z,7.96
2023-04-11T09:47:45.915Z,7.95
2023-04-11T09:48:47.114Z,8.00
2023-04-11T09:49:45.813Z,8.01
2023-04-11T09:50:45.777Z,8.03
2023-04-11T09:51:45.738Z,8.05
2023-04-11T09:52:45.681Z,8.09
2023-04-11T09:53:45.650Z,8.02
2023-04-11T09:54:45.636Z,7.95
2023-04-11T09:55:45.735Z,7.95
2023-04-11T09:56:45.696Z,7.96
2023-04-11T09:57:45.781Z,7.89
2023-04-11T09:58:45.752Z,8.05
2023-04-11T09:59:45.789Z,7.94
2023-04-11T10:00:45.823Z,7.97
2023-04-11T10:01:45.892Z,7.99
2023-04-11T10:02:46.044Z,7.87
2023-04-11T10:03:45.899Z,7.94
2023-04-11T10:04:45.921Z,7.82
2023-04-11T10:05:45.922Z,7.72
2023-04-11T10:06:45.957Z,7.71
2023-04-11T10:07:46.031Z,7.68
2023-04-11T10:08:46.025Z,7.65
2023-04-11T10:09:46.059Z,7.46
2023-04-11T10:10:46.079Z,7.45
2023-04-11T10:11:46.137Z,7.30
2023-04-11T10:12:46.097Z,7.24
2023-04-11T10:13:46.122Z,7.26
2023-04-11T10:14:46.126Z,7.27
2023-04-11T10:15:46.105Z,7.29
2023-04-11T10:16:46.174Z,7.16
2023-04-11T10:17:46.197Z,7.30
2023-04-11T10:18:46.159Z,7.22
2023-04-11T10:19:46.864Z,7.20
2023-04-11T10:20:46.874Z,7.15
2023-04-11T10:21:46.859Z,7.11
2023-04-11T10:22:46.136Z,6.96
2023-04-11T10:23:46.093Z,7.11
2023-04-11T10:24:46.134Z,7.03
2023-04-11T10:25:46.204Z,6.89
2023-04-11T10:26:47.217Z,6.96
2023-04-11T10:27:46.217Z,6.98
2023-04-11T10:28:46.241Z,6.89
2023-04-11T10:29:46.274Z,6.92
2023-04-11T10:30:46.293Z,6.86
2023-04-11T10:31:46.310Z,6.92
2023-04-11T10:32:46.322Z,6.86
2023-04-11T10:33:46.866Z,6.80
2023-04-11T10:34:46.346Z,6.76
2023-04-11T10:35:46.391Z,6.61
2023-04-11T10:36:46.389Z,6.59
2023-04-11T10:37:46.409Z,6.74
2023-04-11T10:38:46.430Z,6.71
2023-04-11T10:39:46.445Z,6.53
2023-04-11T10:40:46.452Z,6.45
2023-04-11T10:41:46.450Z,6.51
2023-04-11T10:42:46.455Z,6.57
2023-04-11T10:43:46.476Z,6.53
2023-04-11T10:44:46.437Z,6.42
2023-04-11T10:45:46.417Z,6.29
2023-04-11T10:46:46.419Z,6.16
2023-04-11T10:47:46.410Z,6.10
2023-04-11T10:48:46.404Z,6.07
2023-04-11T10:49:47.300Z,6.08
2023-04-11T10:50:46.406Z,5.84
2023-04-11T10:51:46.404Z,5.91
2023-04-11T10:52:46.426Z,5.86
2023-04-11T10:53:46.433Z,5.75
2023-04-11T10:54:46.433Z,5.72
2023-04-11T10:55:46.393Z,5.64
2023-04-11T10:56:46.352Z,5.56
2023-04-11T10:57:46.348Z,5.51
2023-04-11T10:58:46.348Z,5.58
2023-04-11T10:59:46.366Z,5.54
2023-04-11T11:00:46.386Z,5.57
2023-04-11T11:01:52.372Z,5.52
2023-04-11T11:02:47.444Z,5.53
2023-04-11T11:03:46.523Z,5.50
2023-04-11T11:04:46.256Z,5.56
2023-04-11T11:05:46.166Z,5.56
2023-04-11T11:06:54.540Z,5.51
2023-04-11T11:07:47.082Z,5.53
2023-04-11T11:08:46.043Z,5.53
2023-04-11T11:09:45.984Z,5.50
2023-04-11T11:10:45.934Z,5.53
2023-04-11T11:11:45.898Z,5.43
2023-04-11T11:12:45.865Z,5.40
2023-04-11T11:13:45.828Z,5.33
2023-04-11T11:14:45.801Z,5.39
2023-04-11T11:15:45.764Z,5.19
2023-04-11T11:16:45.739Z,5.19
2023-04-11T11:17:45.716Z,5.09
2023-04-11T11:18:45.635Z,5.10
2023-04-11T11:19:45.628Z,4.99
2023-04-11T11:20:45.564Z,5.02
2023-04-11T11:21:45.505Z,5.00
2023-04-11T11:22:45.483Z,4.72
2023-04-11T11:23:45.435Z,4.62
2023-04-11T11:24:45.392Z,4.46
2023-04-11T11:25:45.380Z,4.45
2023-04-11T11:26:45.387Z,4.50
2023-04-11T11:27:45.392Z,4.26
2023-04-11T11:28:45.365Z,4.50
2023-04-11T11:29:45.338Z,4.61
2023-04-11T11:30:45.293Z,4.70
2023-04-11T11:31:45.266Z,4.76
2023-04-11T11:32:45.317Z,4.74
2023-04-11T11:33:45.248Z,4.80
2023-04-11T11:34:45.197Z,4.76
2023-04-11T11:35:45.166Z,4.78
2023-04-11T11:36:45.208Z,4.78
2023-04-11T11:37:45.131Z,4.75
2023-04-11T11:38:45.080Z,4.75
2023-04-11T11:39:45.030Z,4.77
2023-04-11T11:40:44.981Z,4.74
2023-04-11T11:41:44.935Z,4.83
2023-04-11T11:42:44.926Z,4.70
2023-04-11T11:43:44.911Z,4.70
2023-04-11T11:44:44.876Z,4.76
2023-04-11T11:45:44.878Z,4.69
2023-04-11T11:46:44.978Z,4.57
2023-04-11T11:47:44.883Z,4.60
2023-04-11T11:48:44.806Z,4.50
2023-04-11T11:49:44.796Z,4.48
2023-04-11T11:50:44.795Z,4.49
2023-04-11T11:51:44.779Z,4.48
2023-04-11T11:52:44.760Z,4.43
2023-04-11T11:53:44.711Z,4.37
2023-04-11T11:54:44.702Z,4.40
2023-04-11T11:55:44.685Z,4.33
2023-04-11T11:56:44.690Z,4.37
2023-04-11T11:57:44.703Z,4.33
2023-04-11T11:58:44.660Z,4.31
2023-04-11T11:59:44.618Z,4.26
2023-04-11T12:00:44.603Z,4.31
2023-04-11T12:01:44.661Z,4.25
2023-04-11T12:02:44.963Z,4.29
2023-04-11T12:03:44.789Z,4.19
2023-04-11T12:04:45.507Z,4.18
2023-04-11T12:05:44.688Z,4.15
2023-04-11T12:06:44.719Z,4.20
2023-04-11T12:07:44.765Z,4.24
2023-04-11T12:08:46.350Z,4.18
2023-04-11T12:09:44.782Z,4.18
2023-04-11T12:10:44.763Z,4.10
2023-04-11T12:11:44.767Z,4.08
2023-04-11T12:12:52.915Z,4.01
2023-04-11T12:13:45.740Z,4.02
2023-04-11T12:14:44.690Z,4.02
2023-04-11T12:15:44.659Z,4.07
2023-04-11T12:16:44.613Z,3.98
2023-04-11T12:17:45.387Z,4.02
2023-04-11T12:18:44.546Z,4.00
2023-04-11T12:19:44.484Z,3.99
2023-04-11T12:20:44.441Z,3.92
2023-04-11T12:21:44.395Z,3.94
2023-04-11T12:22:44.360Z,3.86
2023-04-11T12:23:44.334Z,3.82
2023-04-11T12:24:44.280Z,3.84
2023-04-11T12:25:44.278Z,3.79
2023-04-11T12:26:57.570Z,3.84
2023-04-11T12:27:47.056Z,3.84
2023-04-11T12:28:44.171Z,3.86
2023-04-11T12:29:44.119Z,3.86
2023-04-11T12:30:44.062Z,3.80
2023-04-11T12:31:45.897Z,3.67
2023-04-11T12:32:44.017Z,3.84
2023-04-11T12:33:43.955Z,3.82
2023-04-11T12:34:43.892Z,3.77
2023-04-11T12:35:43.844Z,3.77
2023-04-11T12:36:43.810Z,3.70
2023-04-11T12:37:43.762Z,3.72
2023-04-11T12:38:43.727Z,3.74
2023-04-11T12:39:43.684Z,3.62
2023-04-11T12:40:43.685Z,3.67
2023-04-11T12:41:43.583Z,3.63
2023-04-11T12:43:43.487Z,3.61
2023-04-11T12:44:43.429Z,3.53
2023-04-11T12:45:43.370Z,3.50
2023-04-11T12:46:43.371Z,3.52
2023-04-11T12:47:43.290Z,3.51
2023-04-11T12:48:43.240Z,3.53
2023-04-11T12:49:43.196Z,3.42
2023-04-11T12:50:43.129Z,3.36
2023-04-11T12:51:43.085Z,3.38
2023-04-11T12:52:43.037Z,3.35
2023-04-11T12:53:43.012Z,3.29
2023-04-11T12:54:42.963Z,3.26
2023-04-11T12:55:42.933Z,3.25
2023-04-11T12:56:43.024Z,3.24
2023-04-11T12:57:42.845Z,3.23
2023-04-11T12:58:42.792Z,3.23
2023-04-11T12:59:42.755Z,3.23
2023-04-11T13:00:42.711Z,3.17
2023-04-11T13:01:42.751Z,3.13
2023-04-11T13:02:44.887Z,3.16
2023-04-11T13:03:42.622Z,3.17
2023-04-11T13:04:42.587Z,3.17
2023-04-11T13:05:42.493Z,3.18
2023-04-11T13:06:42.448Z,3.06
2023-04-11T13:07:42.413Z,2.92
2023-04-11T13:08:42.370Z,2.83
2023-04-11T13:09:42.331Z,2.75
2023-04-11T13:10:42.281Z,2.71
2023-04-11T13:11:42.246Z,2.60
2023-04-11T13:12:42.210Z,2.58
2023-04-11T13:13:42.169Z,2.62
2023-04-11T13:14:42.131Z,2.59
2023-04-11T13:15:42.085Z,2.59
2023-04-11T13:16:42.147Z,2.58
2023-04-11T13:17:42.025Z,2.57
2023-04-11T13:18:41.953Z,2.54
2023-04-11T13:19:41.915Z,2.54